sensor_id;sensor_type;location;lat;lon;timestamp;temperature;humidity
4052;DHT22;2040;50.924;11.604;2024-01-25T00:02:06;7.50;99.90
4052;DHT22;2040;50.924;11.604;2024-01-25T00:04:31;7.50;99.90
4052;DHT22;2040;50.924;11.604;2024-01-25T00:06:57;7.50;99.90
4052;DHT22;2040;50.924;11.604;2024-01-25T00:09:22;7.50;99.90
4052;DHT22;2040;50.924;11.604;2024-01-25T00:11:48;7.50;99.90
4052;DHT22;2040;50.924;11.604;2024-01-25T00:14:13;7.50;99.90
4052;DHT22;2040;50.924;11.604;2024-01-25T00:16:42;7.50;99.90
4052;DHT22;2040;50.924;11.604;2024-01-25T00:19:08;7.50;99.90
4052;DHT22;2040;50.924;11.604;2024-01-25T00:21:33;7.40;99.90
4052;DHT22;2040;50.924;11.604;2024-01-25T00:23:59;7.50;99.90
4052;DHT22;2040;50.924;11.604;2024-01-25T00:26:24;7.50;99.90
4052;DHT22;2040;50.924;11.604;2024-01-25T00:28:50;7.40;99.90
4052;DHT22;2040;50.924;11.604;2024-01-25T00:31:15;7.50;99.90
4052;DHT22;2040;50.924;11.604;2024-01-25T00:33:41;7.50;99.90
4052;DHT22;2040;50.924;11.604;2024-01-25T00:36:07;7.40;99.90
4052;DHT22;2040;50.924;11.604;2024-01-25T00:38:33;7.30;99.90
4052;DHT22;2040;50.924;11.604;2024-01-25T00:40:59;7.30;99.90
4052;DHT22;2040;50.924;11.604;2024-01-25T00:43:25;7.30;99.90
4052;DHT22;2040;50.924;11.604;2024-01-25T00:45:51;7.20;99.90
4052;DHT22;2040;50.924;11.604;2024-01-25T00:48:16;7.20;99.90
4052;DHT22;2040;50.924;11.604;2024-01-25T00:50:42;7.20;99.90
4052;DHT22;2040;50.924;11.604;2024-01-25T00:53:08;7.10;99.90
4052;DHT22;2040;50.924;11.604;2024-01-25T00:55:34;7.10;99.90
4052;DHT22;2040;50.924;11.604;2024-01-25T00:58:00;7.00;99.90
4052;DHT22;2040;50.924;11.604;2024-01-25T01:00:26;7.00;99.90
4052;DHT22;2040;50.924;11.604;2024-01-25T01:02:53;7.10;99.90
4052;DHT22;2040;50.924;11.604;2024-01-25T01:05:19;7.00;99.90
4052;DHT22;2040;50.924;11.604;2024-01-25T01:07:45;7.00;99.90
4052;DHT22;2040;50.924;11.604;2024-01-25T01:10:10;6.90;99.90
4052;DHT22;2040;50.924;11.604;2024-01-25T01:12:36;7.00;99.90
4052;DHT22;2040;50.924;11.604;2024-01-25T01:15:01;7.00;99.90
4052;DHT22;2040;50.924;11.604;2024-01-25T01:17:27;6.90;99.90
4052;DHT22;2040;50.924;11.604;2024-01-25T01:19:53;6.90;99.90
4052;DHT22;2040;50.924;11.604;2024-01-25T01:22:18;6.90;99.90
4052;DHT22;2040;50.924;11.604;2024-01-25T01:24:44;6.90;99.90
4052;DHT22;2040;50.924;11.604;2024-01-25T01:27:09;6.80;99.90
4052;DHT22;2040;50.924;11.604;2024-01-25T01:29:35;7.00;99.90
4052;DHT22;2040;50.924;11.604;2024-01-25T01:32:00;6.90;99.90
4052;DHT22;2040;50.924;11.604;2024-01-25T01:34:26;6.90;99.90
4052;DHT22;2040;50.924;11.604;2024-01-25T01:36:51;6.80;99.90
4052;DHT22;2040;50.924;11.604;2024-01-25T01:39:17;6.80;99.90
4052;DHT22;2040;50.924;11.604;2024-01-25T01:41:47;6.80;99.90
4052;DHT22;2040;50.924;11.604;2024-01-25T01:44:12;6.80;99.90
4052;DHT22;2040;50.924;11.604;2024-01-25T01:46:40;6.60;99.90
4052;DHT22;2040;50.924;11.604;2024-01-25T01:49:07;6.80;99.90
4052;DHT22;2040;50.924;11.604;2024-01-25T01:51:35;6.70;99.90
4052;DHT22;2040;50.924;11.604;2024-01-25T01:54:02;6.50;99.90
4052;DHT22;2040;50.924;11.604;2024-01-25T01:56:31;6.50;99.90
4052;DHT22;2040;50.924;11.604;2024-01-25T01:58:58;6.40;99.90
4052;DHT22;2040;50.924;11.604;2024-01-25T02:01:24;6.40;99.90
4052;DHT22;2040;50.924;11.604;2024-01-25T02:03:51;6.40;99.90
4052;DHT22;2040;50.924;11.604;2024-01-25T02:06:16;6.30;99.90
4052;DHT22;2040;50.924;11.604;2024-01-25T02:08:42;6.40;99.90
4052;DHT22;2040;50.924;11.604;2024-01-25T02:11:11;6.30;99.90
4052;DHT22;2040;50.924;11.604;2024-01-25T02:13:37;6.40;99.90
4052;DHT22;2040;50.924;11.604;2024-01-25T02:16:03;6.40;99.90
4052;DHT22;2040;50.924;11.604;2024-01-25T02:18:29;6.40;99.90
4052;DHT22;2040;50.924;11.604;2024-01-25T02:20:54;6.40;99.90
4052;DHT22;2040;50.924;11.604;2024-01-25T02:23:20;6.40;99.90
4052;DHT22;2040;50.924;11.604;2024-01-25T02:25:45;6.30;99.90
4052;DHT22;2040;50.924;11.604;2024-01-25T02:28:11;6.50;99.90
4052;DHT22;2040;50.924;11.604;2024-01-25T02:30:36;6.50;99.90
4052;DHT22;2040;50.924;11.604;2024-01-25T02:33:02;6.40;99.90
4052;DHT22;2040;50.924;11.604;2024-01-25T02:35:28;6.40;99.90
4052;DHT22;2040;50.924;11.604;2024-01-25T02:37:53;6.50;99.90
4052;DHT22;2040;50.924;11.604;2024-01-25T02:40:19;6.60;99.90
4052;DHT22;2040;50.924;11.604;2024-01-25T02:42:44;6.60;99.90
4052;DHT22;2040;50.924;11.604;2024-01-25T02:45:10;6.60;99.90
4052;DHT22;2040;50.924;11.604;2024-01-25T02:47:36;6.50;99.90
4052;DHT22;2040;50.924;11.604;2024-01-25T02:50:01;6.40;99.90
4052;DHT22;2040;50.924;11.604;2024-01-25T02:52:27;6.50;99.90
4052;DHT22;2040;50.924;11.604;2024-01-25T02:54:52;6.40;99.90
4052;DHT22;2040;50.924;11.604;2024-01-25T02:57:18;6.40;99.90
4052;DHT22;2040;50.924;11.604;2024-01-25T02:59:43;6.50;99.90
4052;DHT22;2040;50.924;11.604;2024-01-25T03:02:09;6.50;99.90
4052;DHT22;2040;50.924;11.604;2024-01-25T03:04:35;6.40;99.90
4052;DHT22;2040;50.924;11.604;2024-01-25T03:07:00;6.40;99.90
4052;DHT22;2040;50.924;11.604;2024-01-25T03:09:26;6.30;99.90
4052;DHT22;2040;50.924;11.604;2024-01-25T03:11:51;6.30;99.90
4052;DHT22;2040;50.924;11.604;2024-01-25T03:14:17;6.30;99.90
4052;DHT22;2040;50.924;11.604;2024-01-25T03:16:42;6.30;99.90
4052;DHT22;2040;50.924;11.604;2024-01-25T03:19:10;6.20;99.90
4052;DHT22;2040;50.924;11.604;2024-01-25T03:21:36;6.20;99.90
4052;DHT22;2040;50.924;11.604;2024-01-25T03:24:01;6.20;99.90
4052;DHT22;2040;50.924;11.604;2024-01-25T03:26:27;6.30;99.90
4052;DHT22;2040;50.924;11.604;2024-01-25T03:28:53;6.30;99.90
4052;DHT22;2040;50.924;11.604;2024-01-25T03:31:19;6.30;99.90
4052;DHT22;2040;50.924;11.604;2024-01-25T03:33:45;6.30;99.90
4052;DHT22;2040;50.924;11.604;2024-01-25T03:36:14;6.30;99.90
4052;DHT22;2040;50.924;11.604;2024-01-25T03:38:39;6.30;99.90
4052;DHT22;2040;50.924;11.604;2024-01-25T03:41:05;6.40;99.90
4052;DHT22;2040;50.924;11.604;2024-01-25T03:43:30;6.40;99.90
4052;DHT22;2040;50.924;11.604;2024-01-25T03:45:59;6.50;99.90
4052;DHT22;2040;50.924;11.604;2024-01-25T03:48:24;6.50;99.90
4052;DHT22;2040;50.924;11.604;2024-01-25T03:50:50;6.50;99.90
4052;DHT22;2040;50.924;11.604;2024-01-25T03:53:15;6.50;99.90
4052;DHT22;2040;50.924;11.604;2024-01-25T03:55:41;6.50;99.90
4052;DHT22;2040;50.924;11.604;2024-01-25T03:58:06;6.50;99.90
4052;DHT22;2040;50.924;11.604;2024-01-25T04:00:32;6.50;99.90
4052;DHT22;2040;50.924;11.604;2024-01-25T04:02:58;6.50;99.90
4052;DHT22;2040;50.924;11.604;2024-01-25T04:05:23;6.50;99.90
4052;DHT22;2040;50.924;11.604;2024-01-25T04:07:49;6.50;99.90
4052;DHT22;2040;50.924;11.604;2024-01-25T04:10:14;6.50;99.90
4052;DHT22;2040;50.924;11.604;2024-01-25T04:12:40;6.40;99.90
4052;DHT22;2040;50.924;11.604;2024-01-25T04:15:06;6.40;99.90
4052;DHT22;2040;50.924;11.604;2024-01-25T04:17:31;6.30;99.90
4052;DHT22;2040;50.924;11.604;2024-01-25T04:19:57;6.30;99.90
4052;DHT22;2040;50.924;11.604;2024-01-25T04:22:22;6.40;99.90
4052;DHT22;2040;50.924;11.604;2024-01-25T04:24:48;6.30;99.90
4052;DHT22;2040;50.924;11.604;2024-01-25T04:27:15;6.30;99.90
4052;DHT22;2040;50.924;11.604;2024-01-25T04:29:40;6.20;99.90
4052;DHT22;2040;50.924;11.604;2024-01-25T04:32:09;6.30;99.90
4052;DHT22;2040;50.924;11.604;2024-01-25T04:34:35;6.20;99.90
4052;DHT22;2040;50.924;11.604;2024-01-25T04:37:01;6.20;99.90
4052;DHT22;2040;50.924;11.604;2024-01-25T04:39:27;6.10;99.90
4052;DHT22;2040;50.924;11.604;2024-01-25T04:41:52;6.10;99.90
4052;DHT22;2040;50.924;11.604;2024-01-25T04:44:18;6.10;99.90
4052;DHT22;2040;50.924;11.604;2024-01-25T04:46:44;6.10;99.90
4052;DHT22;2040;50.924;11.604;2024-01-25T04:49:09;6.10;99.90
4052;DHT22;2040;50.924;11.604;2024-01-25T04:51:35;6.20;99.90
4052;DHT22;2040;50.924;11.604;2024-01-25T04:54:01;6.20;99.90
4052;DHT22;2040;50.924;11.604;2024-01-25T04:56:26;6.10;99.90
4052;DHT22;2040;50.924;11.604;2024-01-25T04:58:52;6.00;99.90
4052;DHT22;2040;50.924;11.604;2024-01-25T05:01:17;6.20;99.90
4052;DHT22;2040;50.924;11.604;2024-01-25T05:03:43;6.00;99.90
4052;DHT22;2040;50.924;11.604;2024-01-25T05:06:08;6.00;99.90
4052;DHT22;2040;50.924;11.604;2024-01-25T05:08:34;5.90;99.90
4052;DHT22;2040;50.924;11.604;2024-01-25T05:11:00;5.90;99.90
4052;DHT22;2040;50.924;11.604;2024-01-25T05:13:25;5.90;99.90
4052;DHT22;2040;50.924;11.604;2024-01-25T05:15:51;5.90;99.90
4052;DHT22;2040;50.924;11.604;2024-01-25T05:18:16;6.00;99.90
4052;DHT22;2040;50.924;11.604;2024-01-25T05:20:42;6.10;99.90
4052;DHT22;2040;50.924;11.604;2024-01-25T05:23:07;6.10;99.90
4052;DHT22;2040;50.924;11.604;2024-01-25T05:25:33;6.00;99.90
4052;DHT22;2040;50.924;11.604;2024-01-25T05:27:59;5.90;99.90
4052;DHT22;2040;50.924;11.604;2024-01-25T05:30:25;6.10;99.90
4052;DHT22;2040;50.924;11.604;2024-01-25T05:32:50;6.20;99.90
4052;DHT22;2040;50.924;11.604;2024-01-25T05:35:17;6.00;99.90
4052;DHT22;2040;50.924;11.604;2024-01-25T05:37:43;6.00;99.90
4052;DHT22;2040;50.924;11.604;2024-01-25T05:40:09;5.90;99.90
4052;DHT22;2040;50.924;11.604;2024-01-25T05:42:35;5.90;99.90
4052;DHT22;2040;50.924;11.604;2024-01-25T05:45:02;6.00;99.90
4052;DHT22;2040;50.924;11.604;2024-01-25T05:47:29;5.90;99.90
4052;DHT22;2040;50.924;11.604;2024-01-25T05:49:54;5.90;99.90
4052;DHT22;2040;50.924;11.604;2024-01-25T05:52:20;6.00;99.90
4052;DHT22;2040;50.924;11.604;2024-01-25T05:54:47;6.10;99.90
4052;DHT22;2040;50.924;11.604;2024-01-25T05:57:13;6.00;99.90
4052;DHT22;2040;50.924;11.604;2024-01-25T05:59:38;6.00;99.90
4052;DHT22;2040;50.924;11.604;2024-01-25T06:02:04;6.00;99.90
4052;DHT22;2040;50.924;11.604;2024-01-25T06:04:30;6.00;99.90
4052;DHT22;2040;50.924;11.604;2024-01-25T06:06:56;6.00;99.90
4052;DHT22;2040;50.924;11.604;2024-01-25T06:09:21;6.00;99.90
4052;DHT22;2040;50.924;11.604;2024-01-25T06:11:47;6.00;99.90
4052;DHT22;2040;50.924;11.604;2024-01-25T06:14:12;5.90;99.90
4052;DHT22;2040;50.924;11.604;2024-01-25T06:16:38;6.10;99.90
4052;DHT22;2040;50.924;11.604;2024-01-25T06:19:04;6.20;99.90
4052;DHT22;2040;50.924;11.604;2024-01-25T06:21:29;6.10;99.90
4052;DHT22;2040;50.924;11.604;2024-01-25T06:23:55;6.10;99.90
4052;DHT22;2040;50.924;11.604;2024-01-25T06:26:20;6.10;99.90
4052;DHT22;2040;50.924;11.604;2024-01-25T06:28:46;6.10;99.90
4052;DHT22;2040;50.924;11.604;2024-01-25T06:31:11;6.20;99.90
4052;DHT22;2040;50.924;11.604;2024-01-25T06:33:37;6.20;99.90
4052;DHT22;2040;50.924;11.604;2024-01-25T06:36:02;6.20;99.90
4052;DHT22;2040;50.924;11.604;2024-01-25T06:38:28;6.20;99.90
4052;DHT22;2040;50.924;11.604;2024-01-25T06:40:53;6.20;99.90
4052;DHT22;2040;50.924;11.604;2024-01-25T06:43:19;6.20;99.90
4052;DHT22;2040;50.924;11.604;2024-01-25T06:45:45;6.30;99.90
4052;DHT22;2040;50.924;11.604;2024-01-25T06:48:11;6.30;99.90
4052;DHT22;2040;50.924;11.604;2024-01-25T06:50:36;6.40;99.90
4052;DHT22;2040;50.924;11.604;2024-01-25T06:53:03;6.30;99.90
4052;DHT22;2040;50.924;11.604;2024-01-25T06:55:29;6.40;99.90
4052;DHT22;2040;50.924;11.604;2024-01-25T06:57:55;6.40;99.90
4052;DHT22;2040;50.924;11.604;2024-01-25T07:00:20;6.50;99.90
4052;DHT22;2040;50.924;11.604;2024-01-25T07:02:46;6.50;99.90
4052;DHT22;2040;50.924;11.604;2024-01-25T07:05:12;6.40;99.90
4052;DHT22;2040;50.924;11.604;2024-01-25T07:07:38;6.40;99.90
4052;DHT22;2040;50.924;11.604;2024-01-25T07:10:05;6.40;99.90
4052;DHT22;2040;50.924;11.604;2024-01-25T07:12:31;6.30;99.90
4052;DHT22;2040;50.924;11.604;2024-01-25T07:14:56;6.40;99.90
4052;DHT22;2040;50.924;11.604;2024-01-25T07:17:22;6.40;99.90
4052;DHT22;2040;50.924;11.604;2024-01-25T07:19:48;6.40;99.90
4052;DHT22;2040;50.924;11.604;2024-01-25T07:22:13;6.50;99.90
4052;DHT22;2040;50.924;11.604;2024-01-25T07:24:40;6.40;99.90
4052;DHT22;2040;50.924;11.604;2024-01-25T07:27:06;6.50;99.90
4052;DHT22;2040;50.924;11.604;2024-01-25T07:29:32;6.50;99.90
4052;DHT22;2040;50.924;11.604;2024-01-25T07:31:57;6.40;99.90
4052;DHT22;2040;50.924;11.604;2024-01-25T07:34:23;6.40;99.90
4052;DHT22;2040;50.924;11.604;2024-01-25T07:36:48;6.40;99.90
4052;DHT22;2040;50.924;11.604;2024-01-25T07:39:14;6.50;99.90
4052;DHT22;2040;50.924;11.604;2024-01-25T07:41:39;6.40;99.90
4052;DHT22;2040;50.924;11.604;2024-01-25T07:44:05;6.40;99.90
4052;DHT22;2040;50.924;11.604;2024-01-25T07:46:31;6.40;99.90
4052;DHT22;2040;50.924;11.604;2024-01-25T07:48:57;6.50;99.90
4052;DHT22;2040;50.924;11.604;2024-01-25T07:51:22;6.40;99.90
4052;DHT22;2040;50.924;11.604;2024-01-25T07:53:48;6.40;99.90
4052;DHT22;2040;50.924;11.604;2024-01-25T07:56:13;6.30;99.90
4052;DHT22;2040;50.924;11.604;2024-01-25T07:58:39;6.40;99.90
4052;DHT22;2040;50.924;11.604;2024-01-25T08:01:06;6.40;99.90
4052;DHT22;2040;50.924;11.604;2024-01-25T08:03:32;6.30;99.90
4052;DHT22;2040;50.924;11.604;2024-01-25T08:06:02;6.30;99.90
4052;DHT22;2040;50.924;11.604;2024-01-25T08:08:28;6.30;99.90
4052;DHT22;2040;50.924;11.604;2024-01-25T08:10:53;6.30;99.90
4052;DHT22;2040;50.924;11.604;2024-01-25T08:13:19;6.30;99.90
4052;DHT22;2040;50.924;11.604;2024-01-25T08:15:45;6.30;99.90
4052;DHT22;2040;50.924;11.604;2024-01-25T08:18:10;6.30;99.90
4052;DHT22;2040;50.924;11.604;2024-01-25T08:20:37;6.30;99.90
4052;DHT22;2040;50.924;11.604;2024-01-25T08:23:03;6.40;99.90
4052;DHT22;2040;50.924;11.604;2024-01-25T08:25:29;6.50;99.90
4052;DHT22;2040;50.924;11.604;2024-01-25T08:27:54;6.40;99.90
4052;DHT22;2040;50.924;11.604;2024-01-25T08:30:20;6.50;99.90
4052;DHT22;2040;50.924;11.604;2024-01-25T08:32:45;6.50;99.90
4052;DHT22;2040;50.924;11.604;2024-01-25T08:35:11;6.50;99.90
4052;DHT22;2040;50.924;11.604;2024-01-25T08:37:36;6.60;99.90
4052;DHT22;2040;50.924;11.604;2024-01-25T08:40:04;6.60;99.90
4052;DHT22;2040;50.924;11.604;2024-01-25T08:42:32;6.60;99.90
4052;DHT22;2040;50.924;11.604;2024-01-25T08:44:57;6.60;99.90
4052;DHT22;2040;50.924;11.604;2024-01-25T08:47:23;6.70;99.90
4052;DHT22;2040;50.924;11.604;2024-01-25T08:49:49;6.70;99.90
4052;DHT22;2040;50.924;11.604;2024-01-25T08:52:14;6.70;99.90
4052;DHT22;2040;50.924;11.604;2024-01-25T08:54:40;6.70;99.90
4052;DHT22;2040;50.924;11.604;2024-01-25T08:57:07;6.80;99.90
4052;DHT22;2040;50.924;11.604;2024-01-25T08:59:34;6.80;99.90
4052;DHT22;2040;50.924;11.604;2024-01-25T09:02:06;6.70;99.90
4052;DHT22;2040;50.924;11.604;2024-01-25T09:04:32;6.70;99.90
4052;DHT22;2040;50.924;11.604;2024-01-25T09:06:58;6.70;99.90
4052;DHT22;2040;50.924;11.604;2024-01-25T09:09:23;6.70;99.90
4052;DHT22;2040;50.924;11.604;2024-01-25T09:11:49;6.70;99.90
4052;DHT22;2040;50.924;11.604;2024-01-25T09:14:15;6.70;99.90
4052;DHT22;2040;50.924;11.604;2024-01-25T09:16:40;6.60;99.90
4052;DHT22;2040;50.924;11.604;2024-01-25T09:19:06;6.70;99.90
4052;DHT22;2040;50.924;11.604;2024-01-25T09:21:31;6.60;99.90
4052;DHT22;2040;50.924;11.604;2024-01-25T09:23:57;6.60;99.90
4052;DHT22;2040;50.924;11.604;2024-01-25T09:26:22;6.70;99.90
4052;DHT22;2040;50.924;11.604;2024-01-25T09:28:48;6.70;99.90
4052;DHT22;2040;50.924;11.604;2024-01-25T09:31:14;6.70;99.90
4052;DHT22;2040;50.924;11.604;2024-01-25T09:33:39;6.80;99.90
4052;DHT22;2040;50.924;11.604;2024-01-25T09:36:05;6.90;99.90
4052;DHT22;2040;50.924;11.604;2024-01-25T09:38:31;7.00;99.90
4052;DHT22;2040;50.924;11.604;2024-01-25T09:40:56;7.20;99.90
4052;DHT22;2040;50.924;11.604;2024-01-25T09:43:22;7.30;99.90
4052;DHT22;2040;50.924;11.604;2024-01-25T09:45:53;7.50;99.90
4052;DHT22;2040;50.924;11.604;2024-01-25T09:48:22;7.70;99.90
4052;DHT22;2040;50.924;11.604;2024-01-25T09:50:48;7.70;99.90
4052;DHT22;2040;50.924;11.604;2024-01-25T09:53:23;7.80;99.90
4052;DHT22;2040;50.924;11.604;2024-01-25T09:56:08;7.80;99.90
4052;DHT22;2040;50.924;11.604;2024-01-25T09:58:43;7.80;99.90
4052;DHT22;2040;50.924;11.604;2024-01-25T10:01:13;7.80;99.90
4052;DHT22;2040;50.924;11.604;2024-01-25T10:03:41;7.70;99.90
4052;DHT22;2040;50.924;11.604;2024-01-25T10:06:07;7.60;99.90
4052;DHT22;2040;50.924;11.604;2024-01-25T10:08:34;7.60;99.90
4052;DHT22;2040;50.924;11.604;2024-01-25T10:10:59;7.60;99.90
4052;DHT22;2040;50.924;11.604;2024-01-25T10:13:26;7.50;99.90
4052;DHT22;2040;50.924;11.604;2024-01-25T10:15:52;7.50;99.90
4052;DHT22;2040;50.924;11.604;2024-01-25T10:18:19;7.40;99.90
4052;DHT22;2040;50.924;11.604;2024-01-25T10:20:45;7.40;99.90
4052;DHT22;2040;50.924;11.604;2024-01-25T10:23:11;7.40;99.90
4052;DHT22;2040;50.924;11.604;2024-01-25T10:25:36;7.40;99.90
4052;DHT22;2040;50.924;11.604;2024-01-25T10:28:06;7.40;99.90
4052;DHT22;2040;50.924;11.604;2024-01-25T10:30:35;7.40;99.90
4052;DHT22;2040;50.924;11.604;2024-01-25T10:33:01;7.50;99.90
4052;DHT22;2040;50.924;11.604;2024-01-25T10:35:27;7.50;99.90
4052;DHT22;2040;50.924;11.604;2024-01-25T10:37:53;7.50;99.90
4052;DHT22;2040;50.924;11.604;2024-01-25T10:40:20;7.40;99.90
4052;DHT22;2040;50.924;11.604;2024-01-25T10:42:47;7.40;99.90
4052;DHT22;2040;50.924;11.604;2024-01-25T10:45:12;7.30;99.90
4052;DHT22;2040;50.924;11.604;2024-01-25T10:47:38;7.30;99.90
4052;DHT22;2040;50.924;11.604;2024-01-25T10:50:07;7.30;99.90
4052;DHT22;2040;50.924;11.604;2024-01-25T10:52:34;7.30;99.90
4052;DHT22;2040;50.924;11.604;2024-01-25T10:55:01;7.30;99.90
4052;DHT22;2040;50.924;11.604;2024-01-25T10:57:35;7.30;99.90
4052;DHT22;2040;50.924;11.604;2024-01-25T11:00:05;7.30;99.90
4052;DHT22;2040;50.924;11.604;2024-01-25T11:02:34;7.30;99.90
4052;DHT22;2040;50.924;11.604;2024-01-25T11:05:00;7.30;99.90
4052;DHT22;2040;50.924;11.604;2024-01-25T11:07:26;7.40;99.90
4052;DHT22;2040;50.924;11.604;2024-01-25T11:09:52;7.40;99.90
4052;DHT22;2040;50.924;11.604;2024-01-25T11:12:19;7.60;99.90
4052;DHT22;2040;50.924;11.604;2024-01-25T11:14:45;7.60;99.90
4052;DHT22;2040;50.924;11.604;2024-01-25T11:17:20;7.60;99.90
4052;DHT22;2040;50.924;11.604;2024-01-25T11:19:48;7.60;99.90
4052;DHT22;2040;50.924;11.604;2024-01-25T11:22:14;7.50;99.90
4052;DHT22;2040;50.924;11.604;2024-01-25T11:24:40;7.60;99.90
4052;DHT22;2040;50.924;11.604;2024-01-25T11:27:06;7.70;99.90
4052;DHT22;2040;50.924;11.604;2024-01-25T11:29:32;7.50;99.90
4052;DHT22;2040;50.924;11.604;2024-01-25T11:31:58;7.50;99.90
4052;DHT22;2040;50.924;11.604;2024-01-25T11:34:24;7.50;99.90
4052;DHT22;2040;50.924;11.604;2024-01-25T11:36:50;7.40;99.90
4052;DHT22;2040;50.924;11.604;2024-01-25T11:39:16;7.50;99.90
4052;DHT22;2040;50.924;11.604;2024-01-25T11:41:43;7.60;99.90
4052;DHT22;2040;50.924;11.604;2024-01-25T11:44:10;7.60;99.90
4052;DHT22;2040;50.924;11.604;2024-01-25T11:46:36;7.70;99.90
4052;DHT22;2040;50.924;11.604;2024-01-25T11:49:01;7.70;99.90
4052;DHT22;2040;50.924;11.604;2024-01-25T11:51:27;7.60;99.90
4052;DHT22;2040;50.924;11.604;2024-01-25T11:53:53;7.70;99.90
4052;DHT22;2040;50.924;11.604;2024-01-25T11:56:28;7.80;99.90
4052;DHT22;2040;50.924;11.604;2024-01-25T11:58:54;7.80;99.90
4052;DHT22;2040;50.924;11.604;2024-01-25T12:01:23;7.90;99.90
4052;DHT22;2040;50.924;11.604;2024-01-25T12:03:49;8.10;99.90
4052;DHT22;2040;50.924;11.604;2024-01-25T12:06:15;8.10;99.90
4052;DHT22;2040;50.924;11.604;2024-01-25T12:08:40;8.10;99.90
4052;DHT22;2040;50.924;11.604;2024-01-25T12:11:07;8.00;99.90
4052;DHT22;2040;50.924;11.604;2024-01-25T12:13:39;8.00;99.90
4052;DHT22;2040;50.924;11.604;2024-01-25T12:16:06;8.00;99.90
4052;DHT22;2040;50.924;11.604;2024-01-25T12:18:32;7.90;99.90
4052;DHT22;2040;50.924;11.604;2024-01-25T12:21:04;7.90;99.90
4052;DHT22;2040;50.924;11.604;2024-01-25T12:23:37;7.90;99.90
4052;DHT22;2040;50.924;11.604;2024-01-25T12:26:07;7.90;99.90
4052;DHT22;2040;50.924;11.604;2024-01-25T12:28:33;8.00;99.90
4052;DHT22;2040;50.924;11.604;2024-01-25T12:31:00;8.00;99.90
4052;DHT22;2040;50.924;11.604;2024-01-25T12:33:26;7.90;99.90
4052;DHT22;2040;50.924;11.604;2024-01-25T12:35:52;7.90;99.90
4052;DHT22;2040;50.924;11.604;2024-01-25T12:38:19;7.80;99.90
4052;DHT22;2040;50.924;11.604;2024-01-25T12:40:46;7.80;99.90
4052;DHT22;2040;50.924;11.604;2024-01-25T12:43:14;7.80;99.90
4052;DHT22;2040;50.924;11.604;2024-01-25T12:45:39;7.70;99.90
4052;DHT22;2040;50.924;11.604;2024-01-25T12:48:05;7.60;99.90
4052;DHT22;2040;50.924;11.604;2024-01-25T12:50:32;7.50;99.90
4052;DHT22;2040;50.924;11.604;2024-01-25T12:52:58;7.60;99.90
4052;DHT22;2040;50.924;11.604;2024-01-25T12:55:24;7.50;99.90
4052;DHT22;2040;50.924;11.604;2024-01-25T12:57:50;7.50;99.90
4052;DHT22;2040;50.924;11.604;2024-01-25T13:00:16;7.40;99.90
4052;DHT22;2040;50.924;11.604;2024-01-25T13:02:41;7.50;99.90
4052;DHT22;2040;50.924;11.604;2024-01-25T13:05:07;7.50;99.90
4052;DHT22;2040;50.924;11.604;2024-01-25T13:07:32;7.50;99.90
4052;DHT22;2040;50.924;11.604;2024-01-25T13:09:58;7.50;99.90
4052;DHT22;2040;50.924;11.604;2024-01-25T13:12:23;7.50;99.90
4052;DHT22;2040;50.924;11.604;2024-01-25T13:14:49;7.50;99.90
4052;DHT22;2040;50.924;11.604;2024-01-25T13:17:15;7.50;99.90
4052;DHT22;2040;50.924;11.604;2024-01-25T13:19:40;7.50;99.90
4052;DHT22;2040;50.924;11.604;2024-01-25T13:22:06;7.50;99.90
4052;DHT22;2040;50.924;11.604;2024-01-25T13:24:31;7.50;99.90
4052;DHT22;2040;50.924;11.604;2024-01-25T13:26:57;7.50;99.90
4052;DHT22;2040;50.924;11.604;2024-01-25T13:29:22;7.50;99.90
4052;DHT22;2040;50.924;11.604;2024-01-25T13:31:48;7.50;99.90
4052;DHT22;2040;50.924;11.604;2024-01-25T13:34:13;7.40;99.90
4052;DHT22;2040;50.924;11.604;2024-01-25T13:36:39;7.40;99.90
4052;DHT22;2040;50.924;11.604;2024-01-25T13:39:05;7.50;99.90
4052;DHT22;2040;50.924;11.604;2024-01-25T13:41:31;7.50;99.90
4052;DHT22;2040;50.924;11.604;2024-01-25T13:43:56;7.50;99.90
4052;DHT22;2040;50.924;11.604;2024-01-25T13:46:22;7.50;99.90
4052;DHT22;2040;50.924;11.604;2024-01-25T13:48:48;7.40;99.90
4052;DHT22;2040;50.924;11.604;2024-01-25T13:51:13;7.40;99.90
4052;DHT22;2040;50.924;11.604;2024-01-25T13:53:39;7.50;99.90
4052;DHT22;2040;50.924;11.604;2024-01-25T13:56:05;7.50;99.90
4052;DHT22;2040;50.924;11.604;2024-01-25T13:58:31;7.50;99.90
4052;DHT22;2040;50.924;11.604;2024-01-25T14:00:59;7.50;99.90
4052;DHT22;2040;50.924;11.604;2024-01-25T14:03:24;7.50;99.90
4052;DHT22;2040;50.924;11.604;2024-01-25T14:05:50;7.40;99.90
4052;DHT22;2040;50.924;11.604;2024-01-25T14:08:16;7.40;99.90
4052;DHT22;2040;50.924;11.604;2024-01-25T14:10:41;7.40;99.90
4052;DHT22;2040;50.924;11.604;2024-01-25T14:13:07;7.30;99.90
4052;DHT22;2040;50.924;11.604;2024-01-25T14:15:34;7.30;99.90
4052;DHT22;2040;50.924;11.604;2024-01-25T14:18:00;7.30;99.90
4052;DHT22;2040;50.924;11.604;2024-01-25T14:20:25;7.20;99.90
4052;DHT22;2040;50.924;11.604;2024-01-25T14:22:51;7.20;99.90
4052;DHT22;2040;50.924;11.604;2024-01-25T14:25:16;7.20;99.90
4052;DHT22;2040;50.924;11.604;2024-01-25T14:27:42;7.20;99.90
4052;DHT22;2040;50.924;11.604;2024-01-25T14:30:08;7.10;99.90
4052;DHT22;2040;50.924;11.604;2024-01-25T14:32:34;7.20;99.90
4052;DHT22;2040;50.924;11.604;2024-01-25T14:34:59;7.20;99.90
4052;DHT22;2040;50.924;11.604;2024-01-25T14:37:25;7.20;99.90
4052;DHT22;2040;50.924;11.604;2024-01-25T14:39:50;7.20;99.90
4052;DHT22;2040;50.924;11.604;2024-01-25T14:42:16;7.20;99.90
4052;DHT22;2040;50.924;11.604;2024-01-25T14:44:44;7.20;99.90
4052;DHT22;2040;50.924;11.604;2024-01-25T14:47:10;7.30;99.90
4052;DHT22;2040;50.924;11.604;2024-01-25T14:49:37;7.30;99.90
4052;DHT22;2040;50.924;11.604;2024-01-25T14:52:03;7.30;99.90
4052;DHT22;2040;50.924;11.604;2024-01-25T14:54:29;7.30;99.90
4052;DHT22;2040;50.924;11.604;2024-01-25T14:56:54;7.30;99.90
4052;DHT22;2040;50.924;11.604;2024-01-25T14:59:20;7.30;99.90
4052;DHT22;2040;50.924;11.604;2024-01-25T15:01:48;7.30;99.90
4052;DHT22;2040;50.924;11.604;2024-01-25T15:04:14;7.20;99.90
4052;DHT22;2040;50.924;11.604;2024-01-25T15:06:43;7.20;99.90
4052;DHT22;2040;50.924;11.604;2024-01-25T15:09:09;7.10;99.90
4052;DHT22;2040;50.924;11.604;2024-01-25T15:11:35;7.10;99.90
4052;DHT22;2040;50.924;11.604;2024-01-25T15:14:00;7.00;99.90
4052;DHT22;2040;50.924;11.604;2024-01-25T15:16:26;6.90;99.90
4052;DHT22;2040;50.924;11.604;2024-01-25T15:18:51;6.80;99.90
4052;DHT22;2040;50.924;11.604;2024-01-25T15:21:17;6.70;99.90
4052;DHT22;2040;50.924;11.604;2024-01-25T15:23:43;6.70;99.90
4052;DHT22;2040;50.924;11.604;2024-01-25T15:26:09;6.60;99.90
4052;DHT22;2040;50.924;11.604;2024-01-25T15:28:34;6.60;99.90
4052;DHT22;2040;50.924;11.604;2024-01-25T15:31:01;6.50;99.90
4052;DHT22;2040;50.924;11.604;2024-01-25T15:33:26;6.50;99.90
4052;DHT22;2040;50.924;11.604;2024-01-25T15:35:52;6.40;99.90
4052;DHT22;2040;50.924;11.604;2024-01-25T15:38:17;6.50;99.90
4052;DHT22;2040;50.924;11.604;2024-01-25T15:40:44;6.40;99.90
4052;DHT22;2040;50.924;11.604;2024-01-25T15:43:10;6.30;99.90
4052;DHT22;2040;50.924;11.604;2024-01-25T15:45:36;6.30;99.90
4052;DHT22;2040;50.924;11.604;2024-01-25T15:48:01;6.30;99.90
4052;DHT22;2040;50.924;11.604;2024-01-25T15:50:27;6.20;99.90
4052;DHT22;2040;50.924;11.604;2024-01-25T15:52:53;6.20;99.90
4052;DHT22;2040;50.924;11.604;2024-01-25T15:55:22;6.20;99.90